<?xml version="1.0" encoding="UTF-8" standalone="no" ?>
<gpx xmlns="http://www.topografix.com/GPX/1/1" xmlns:xsi="http://www.w3.org/2001/XMLSchema-instance" xsi:schemaLocation="http://www.topografix.com/GPX/1/1 http://www.topografix.com/GPX/1/1/gpx.xsd" version="1.1" creator="VisuGPX - https://www.visugpx.com">
  <metadata>
    <name>Bike &amp; Run du CRV XS 30 MARS 2025</name>
  </metadata>
  <trk>
    <name><![CDATA[Bike & Run du CRV XS 2025]]></name>
    <extensions>
      <line xmlns="http://www.topografix.com/GPX/gpx_style/0/2">
        <color>0000ff</color>
        <width>4</width>
      </line>
    </extensions>
    <trkseg>
      <trkpt lat="45.80543" lon="4.72118">
        <ele>304.902358</ele>
        <time>2024-12-17T17:52:01.336Z</time>
      </trkpt>
      <trkpt lat="45.80541" lon="4.72109">
        <ele>304.902358</ele>
        <time>2024-12-17T17:52:04.219Z</time>
      </trkpt>
      <trkpt lat="45.80537" lon="4.72073">
        <ele>304.902358</ele>
        <time>2024-12-17T17:52:15.032Z</time>
      </trkpt>
      <trkpt lat="45.80545" lon="4.72038">
        <ele>304.902358</ele>
        <time>2024-12-17T17:52:25.879Z</time>
      </trkpt>
      <trkpt lat="45.80548" lon="4.72015">
        <ele>304.902358</ele>
        <time>2024-12-17T17:52:33.009Z</time>
      </trkpt>
      <trkpt lat="45.80557" lon="4.72001">
        <ele>304.902358</ele>
        <time>2024-12-17T17:52:38.509Z</time>
      </trkpt>
      <trkpt lat="45.80564" lon="4.72001">
        <ele>304.853225</ele>
        <time>2024-12-17T17:52:41.647Z</time>
      </trkpt>
      <trkpt lat="45.80581" lon="4.72">
        <ele>304.634358</ele>
        <time>2024-12-17T17:52:49.153Z</time>
      </trkpt>
      <trkpt lat="45.80588" lon="4.72012">
        <ele>304.501019</ele>
        <time>2024-12-17T17:52:53.725Z</time>
      </trkpt>
      <trkpt lat="45.80596" lon="4.72013">
        <ele>304.40709</ele>
        <time>2024-12-17T17:52:56.941Z</time>
      </trkpt>
      <trkpt lat="45.80614" lon="4.72016">
        <ele>304.17747</ele>
        <time>2024-12-17T17:53:04.751Z</time>
      </trkpt>
      <trkpt lat="45.80638" lon="4.72029">
        <ele>303.857629</ele>
        <time>2024-12-17T17:53:15.361Z</time>
      </trkpt>
      <trkpt lat="45.80655" lon="4.7205">
        <ele>303.577127</ele>
        <time>2024-12-17T17:53:24.370Z</time>
      </trkpt>
      <trkpt lat="45.80676" lon="4.72081">
        <ele>303.211194</ele>
        <time>2024-12-17T17:53:35.759Z</time>
      </trkpt>
      <trkpt lat="45.80676" lon="4.72081">
        <ele>303.211194</ele>
        <time>2024-12-17T17:53:35.764Z</time>
      </trkpt>
      <trkpt lat="45.80691" lon="4.72128">
        <ele>302.758973</ele>
        <time>2024-12-17T17:53:49.599Z</time>
      </trkpt>
      <trkpt lat="45.80697" lon="4.72155">
        <ele>302.120266</ele>
        <time>2024-12-17T17:53:57.057Z</time>
      </trkpt>
      <trkpt lat="45.80698" lon="4.7218">
        <ele>301.378295</ele>
        <time>2024-12-17T17:54:03.356Z</time>
      </trkpt>
      <trkpt lat="45.80695" lon="4.72221">
        <ele>300.137205</ele>
        <time>2024-12-17T17:54:13.835Z</time>
      </trkpt>
      <trkpt lat="45.80687" lon="4.72339">
        <ele>296.571163</ele>
        <time>2024-12-17T17:54:43.676Z</time>
      </trkpt>
      <trkpt lat="45.80681" lon="4.72414">
        <ele>294.997404</ele>
        <time>2024-12-17T17:55:03.562Z</time>
      </trkpt>
      <trkpt lat="45.80682" lon="4.72433">
        <ele>295.099542</ele>
        <time>2024-12-17T17:55:08.798Z</time>
      </trkpt>
      <trkpt lat="45.80688" lon="4.72448">
        <ele>295.190699</ele>
        <time>2024-12-17T17:55:13.570Z</time>
      </trkpt>
      <trkpt lat="45.80715" lon="4.72465">
        <ele>295.412338</ele>
        <time>2024-12-17T17:55:25.412Z</time>
      </trkpt>
      <trkpt lat="45.80773" lon="4.72496">
        <ele>295.88452</ele>
        <time>2024-12-17T17:55:52.550Z</time>
      </trkpt>
      <trkpt lat="45.80852" lon="4.72538">
        <ele>297.655083</ele>
        <time>2024-12-17T17:56:32.544Z</time>
      </trkpt>
      <trkpt lat="45.81013" lon="4.72615">
        <ele>304.172292</ele>
        <time>2024-12-17T17:57:55.234Z</time>
      </trkpt>
      <trkpt lat="45.81069" lon="4.72657">
        <ele>305.969786</ele>
        <time>2024-12-17T17:58:24.815Z</time>
      </trkpt>
      <trkpt lat="45.81207" lon="4.72777">
        <ele>309.641711</ele>
        <time>2024-12-17T17:59:36.275Z</time>
      </trkpt>
      <trkpt lat="45.81224" lon="4.72786">
        <ele>309.913792</ele>
        <time>2024-12-17T17:59:43.957Z</time>
      </trkpt>
      <trkpt lat="45.81209" lon="4.72821">
        <ele>310.339823</ele>
        <time>2024-12-17T17:59:55.959Z</time>
      </trkpt>
      <trkpt lat="45.8118" lon="4.72873">
        <ele>311.037359</ele>
        <time>2024-12-17T18:00:15.747Z</time>
      </trkpt>
      <trkpt lat="45.81174" lon="4.72882">
        <ele>311.161313</ele>
        <time>2024-12-17T18:00:19.242Z</time>
      </trkpt>
      <trkpt lat="45.81092" lon="4.73006">
        <ele>315.387405</ele>
        <time>2024-12-17T18:01:13.357Z</time>
      </trkpt>
      <trkpt lat="45.80998" lon="4.73155">
        <ele>320.857436</ele>
        <time>2024-12-17T18:02:26.964Z</time>
      </trkpt>
      <trkpt lat="45.80926" lon="4.73267">
        <ele>325.144567</ele>
        <time>2024-12-17T18:03:18.109Z</time>
      </trkpt>
      <trkpt lat="45.80925" lon="4.73276">
        <ele>325.201905</ele>
        <time>2024-12-17T18:03:20.977Z</time>
      </trkpt>
      <trkpt lat="45.80907" lon="4.73305">
        <ele>324.554207</ele>
        <time>2024-12-17T18:03:32.306Z</time>
      </trkpt>
      <trkpt lat="45.80899" lon="4.73302">
        <ele>324.358689</ele>
        <time>2024-12-17T18:03:35.657Z</time>
      </trkpt>
      <trkpt lat="45.80785" lon="4.73184">
        <ele>321.0392</ele>
        <time>2024-12-17T18:04:28.544Z</time>
      </trkpt>
      <trkpt lat="45.80712" lon="4.73109">
        <ele>316.590303</ele>
        <time>2024-12-17T18:05:01.036Z</time>
      </trkpt>
      <trkpt lat="45.80682" lon="4.73076">
        <ele>314.686727</ele>
        <time>2024-12-17T18:05:14.943Z</time>
      </trkpt>
      <trkpt lat="45.80664" lon="4.73052">
        <ele>313.446041</ele>
        <time>2024-12-17T18:05:24.046Z</time>
      </trkpt>
      <trkpt lat="45.80631" lon="4.7299">
        <ele>311.190196</ele>
        <time>2024-12-17T18:05:44.019Z</time>
      </trkpt>
      <trkpt lat="45.80622" lon="4.72978">
        <ele>310.807556</ele>
        <time>2024-12-17T18:05:48.335Z</time>
      </trkpt>
      <trkpt lat="45.80589" lon="4.7294">
        <ele>309.421</ele>
        <time>2024-12-17T18:06:04.133Z</time>
      </trkpt>
      <trkpt lat="45.80584" lon="4.72923">
        <ele>309.015357</ele>
        <time>2024-12-17T18:06:08.894Z</time>
      </trkpt>
      <trkpt lat="45.80542" lon="4.72852">
        <ele>306.904056</ele>
        <time>2024-12-17T18:06:34.192Z</time>
      </trkpt>
      <trkpt lat="45.80536" lon="4.72849">
        <ele>306.697586</ele>
        <time>2024-12-17T18:06:36.696Z</time>
      </trkpt>
      <trkpt lat="45.80519" lon="4.72851">
        <ele>306.179479</ele>
        <time>2024-12-17T18:06:43.353Z</time>
      </trkpt>
      <trkpt lat="45.80509" lon="4.72857">
        <ele>305.963878</ele>
        <time>2024-12-17T18:06:47.746Z</time>
      </trkpt>
      <trkpt lat="45.80477" lon="4.72881">
        <ele>305.252503</ele>
        <time>2024-12-17T18:07:02.226Z</time>
      </trkpt>
      <trkpt lat="45.80477" lon="4.72881">
        <ele>305.252503</ele>
        <time>2024-12-17T18:07:02.232Z</time>
      </trkpt>
      <trkpt lat="45.8042" lon="4.72916">
        <ele>304.037821</ele>
        <time>2024-12-17T18:07:27.029Z</time>
      </trkpt>
      <trkpt lat="45.80411" lon="4.72921">
        <ele>303.862991</ele>
        <time>2024-12-17T18:07:30.568Z</time>
      </trkpt>
      <trkpt lat="45.80383" lon="4.72942">
        <ele>303.238707</ele>
        <time>2024-12-17T18:07:42.979Z</time>
      </trkpt>
      <trkpt lat="45.80293" lon="4.72996">
        <ele>299.607514</ele>
        <time>2024-12-17T18:08:19.599Z</time>
      </trkpt>
      <trkpt lat="45.8022" lon="4.73011">
        <ele>296.364766</ele>
        <time>2024-12-17T18:08:46.433Z</time>
      </trkpt>
      <trkpt lat="45.80198" lon="4.73005">
        <ele>295.342183</ele>
        <time>2024-12-17T18:08:54.844Z</time>
      </trkpt>
      <trkpt lat="45.80092" lon="4.72953">
        <ele>289.855664</ele>
        <time>2024-12-17T18:09:35.921Z</time>
      </trkpt>
      <trkpt lat="45.80077" lon="4.72968">
        <ele>288.943793</ele>
        <time>2024-12-17T18:09:43.789Z</time>
      </trkpt>
      <trkpt lat="45.80015" lon="4.72952">
        <ele>285.836115</ele>
        <time>2024-12-17T18:10:10.247Z</time>
      </trkpt>
      <trkpt lat="45.8" lon="4.72933">
        <ele>284.976735</ele>
        <time>2024-12-17T18:10:19.183Z</time>
      </trkpt>
      <trkpt lat="45.79991" lon="4.72912">
        <ele>284.27922</ele>
        <time>2024-12-17T18:10:26.609Z</time>
      </trkpt>
      <trkpt lat="45.79976" lon="4.72896">
        <ele>283.503138</ele>
        <time>2024-12-17T18:10:34.921Z</time>
      </trkpt>
      <trkpt lat="45.79951" lon="4.72879">
        <ele>282.371502</ele>
        <time>2024-12-17T18:10:47.126Z</time>
      </trkpt>
      <trkpt lat="45.79922" lon="4.72868">
        <ele>281.184922</ele>
        <time>2024-12-17T18:10:59.910Z</time>
      </trkpt>
      <trkpt lat="45.79877" lon="4.72867">
        <ele>279.33998</ele>
        <time>2024-12-17T18:11:19.911Z</time>
      </trkpt>
      <trkpt lat="45.79853" lon="4.7288">
        <ele>278.287441</ele>
        <time>2024-12-17T18:11:31.438Z</time>
      </trkpt>
      <trkpt lat="45.79833" lon="4.72898">
        <ele>277.256785</ele>
        <time>2024-12-17T18:11:42.236Z</time>
      </trkpt>
      <trkpt lat="45.79804" lon="4.72943">
        <ele>275.422158</ele>
        <time>2024-12-17T18:12:01.128Z</time>
      </trkpt>
      <trkpt lat="45.79791" lon="4.72946">
        <ele>274.842234</ele>
        <time>2024-12-17T18:12:07.062Z</time>
      </trkpt>
      <trkpt lat="45.79771" lon="4.72957">
        <ele>273.908661</ele>
        <time>2024-12-17T18:12:16.442Z</time>
      </trkpt>
      <trkpt lat="45.79746" lon="4.72977">
        <ele>272.670494</ele>
        <time>2024-12-17T18:12:28.728Z</time>
      </trkpt>
      <trkpt lat="45.79731" lon="4.73003">
        <ele>271.687722</ele>
        <time>2024-12-17T18:12:38.434Z</time>
      </trkpt>
      <trkpt lat="45.79717" lon="4.73012">
        <ele>271.012322</ele>
        <time>2024-12-17T18:12:45.113Z</time>
      </trkpt>
      <trkpt lat="45.797" lon="4.73017">
        <ele>270.343958</ele>
        <time>2024-12-17T18:12:52.684Z</time>
      </trkpt>
      <trkpt lat="45.79684" lon="4.73026">
        <ele>269.780108</ele>
        <time>2024-12-17T18:12:59.870Z</time>
      </trkpt>
      <trkpt lat="45.7965" lon="4.73068">
        <ele>268.248972</ele>
        <time>2024-12-17T18:13:19.649Z</time>
      </trkpt>
      <trkpt lat="45.7962" lon="4.73085">
        <ele>267.141347</ele>
        <time>2024-12-17T18:13:34.314Z</time>
      </trkpt>
      <trkpt lat="45.79587" lon="4.73088">
        <ele>266.036993</ele>
        <time>2024-12-17T18:13:49.023Z</time>
      </trkpt>
      <trkpt lat="45.79564" lon="4.73096">
        <ele>265.217442</ele>
        <time>2024-12-17T18:14:00.001Z</time>
      </trkpt>
      <trkpt lat="45.7954" lon="4.73116">
        <ele>264.523006</ele>
        <time>2024-12-17T18:14:12.569Z</time>
      </trkpt>
      <trkpt lat="45.79526" lon="4.73151">
        <ele>264.33305</ele>
        <time>2024-12-17T18:14:25.473Z</time>
      </trkpt>
      <trkpt lat="45.79499" lon="4.73174">
        <ele>264.11761</ele>
        <time>2024-12-17T18:14:40.375Z</time>
      </trkpt>
      <trkpt lat="45.79462" lon="4.73203">
        <ele>263.835226</ele>
        <time>2024-12-17T18:15:00.585Z</time>
      </trkpt>
      <trkpt lat="45.79452" lon="4.73245">
        <ele>263.622128</ele>
        <time>2024-12-17T18:15:15.844Z</time>
      </trkpt>
      <trkpt lat="45.79446" lon="4.7327">
        <ele>263.500293</ele>
        <time>2024-12-17T18:15:24.501Z</time>
      </trkpt>
      <trkpt lat="45.79452" lon="4.73315">
        <ele>263.21209</ele>
        <time>2024-12-17T18:15:40.025Z</time>
      </trkpt>
      <trkpt lat="45.79447" lon="4.73327">
        <ele>263.085271</ele>
        <time>2024-12-17T18:15:44.799Z</time>
      </trkpt>
      <trkpt lat="45.79438" lon="4.73338">
        <ele>262.939019</ele>
        <time>2024-12-17T18:15:50.306Z</time>
      </trkpt>
      <trkpt lat="45.79435" lon="4.73338">
        <ele>262.888585</ele>
        <time>2024-12-17T18:15:52.176Z</time>
      </trkpt>
      <trkpt lat="45.79388" lon="4.73337">
        <ele>262.285954</ele>
        <time>2024-12-17T18:16:14.547Z</time>
      </trkpt>
      <trkpt lat="45.7934" lon="4.73345">
        <ele>261.662025</ele>
        <time>2024-12-17T18:16:36.875Z</time>
      </trkpt>
      <trkpt lat="45.79296" lon="4.73349">
        <ele>261.092207</ele>
        <time>2024-12-17T18:16:56.450Z</time>
      </trkpt>
      <trkpt lat="45.79221" lon="4.73356">
        <ele>261.420136</ele>
        <time>2024-12-17T18:17:30.879Z</time>
      </trkpt>
      <trkpt lat="45.79197" lon="4.73366">
        <ele>261.55442</ele>
        <time>2024-12-17T18:17:42.821Z</time>
      </trkpt>
      <trkpt lat="45.79167" lon="4.73389">
        <ele>261.74178</ele>
        <time>2024-12-17T18:18:00.510Z</time>
      </trkpt>
      <trkpt lat="45.7916" lon="4.73398">
        <ele>261.793695</ele>
        <time>2024-12-17T18:18:05.562Z</time>
      </trkpt>
      <trkpt lat="45.79208" lon="4.73418">
        <ele>262.487717</ele>
        <time>2024-12-17T18:18:29.654Z</time>
      </trkpt>
      <trkpt lat="45.79228" lon="4.73433">
        <ele>263.572996</ele>
        <time>2024-12-17T18:18:41.038Z</time>
      </trkpt>
      <trkpt lat="45.7925" lon="4.73446">
        <ele>264.74544</ele>
        <time>2024-12-17T18:18:53.587Z</time>
      </trkpt>
      <trkpt lat="45.79276" lon="4.73454">
        <ele>266.022798</ele>
        <time>2024-12-17T18:19:07.307Z</time>
      </trkpt>
      <trkpt lat="45.79304" lon="4.73458">
        <ele>267.377885</ele>
        <time>2024-12-17T18:19:21.669Z</time>
      </trkpt>
      <trkpt lat="45.79378" lon="4.73502">
        <ele>271.268744</ele>
        <time>2024-12-17T18:20:01.605Z</time>
      </trkpt>
      <trkpt lat="45.79405" lon="4.73514">
        <ele>272.597982</ele>
        <time>2024-12-17T18:20:15.209Z</time>
      </trkpt>
      <trkpt lat="45.79415" lon="4.73516">
        <ele>273.079326</ele>
        <time>2024-12-17T18:20:20.161Z</time>
      </trkpt>
      <trkpt lat="45.79427" lon="4.73514">
        <ele>273.687418</ele>
        <time>2024-12-17T18:20:26.340Z</time>
      </trkpt>
      <trkpt lat="45.79455" lon="4.73503">
        <ele>275.051855</ele>
        <time>2024-12-17T18:20:40.403Z</time>
      </trkpt>
      <trkpt lat="45.79515" lon="4.7346">
        <ele>278.256572</ele>
        <time>2024-12-17T18:21:13.923Z</time>
      </trkpt>
      <trkpt lat="45.79543" lon="4.73449">
        <ele>279.69032</ele>
        <time>2024-12-17T18:21:28.866Z</time>
      </trkpt>
      <trkpt lat="45.79543" lon="4.73449">
        <ele>279.69032</ele>
        <time>2024-12-17T18:21:28.889Z</time>
      </trkpt>
      <trkpt lat="45.79606" lon="4.73433">
        <ele>283.117594</ele>
        <time>2024-12-17T18:22:01.958Z</time>
      </trkpt>
      <trkpt lat="45.79612" lon="4.73432">
        <ele>283.432969</ele>
        <time>2024-12-17T18:22:05.033Z</time>
      </trkpt>
      <trkpt lat="45.79626" lon="4.73432">
        <ele>284.222839</ele>
        <time>2024-12-17T18:22:12.724Z</time>
      </trkpt>
      <trkpt lat="45.79705" lon="4.73413">
        <ele>288.524686</ele>
        <time>2024-12-17T18:22:54.175Z</time>
      </trkpt>
      <trkpt lat="45.79735" lon="4.73402">
        <ele>289.786446</ele>
        <time>2024-12-17T18:23:09.952Z</time>
      </trkpt>
      <trkpt lat="45.79751" lon="4.73389">
        <ele>290.419174</ele>
        <time>2024-12-17T18:23:18.857Z</time>
      </trkpt>
      <trkpt lat="45.79885" lon="4.73427">
        <ele>295.259022</ele>
        <time>2024-12-17T18:24:22.905Z</time>
      </trkpt>
      <trkpt lat="45.79893" lon="4.73431">
        <ele>295.399019</ele>
        <time>2024-12-17T18:24:26.577Z</time>
      </trkpt>
      <trkpt lat="45.79897" lon="4.73425">
        <ele>295.450134</ele>
        <time>2024-12-17T18:24:29.020Z</time>
      </trkpt>
      <trkpt lat="45.79958" lon="4.73388">
        <ele>296.0616</ele>
        <time>2024-12-17T18:24:57.538Z</time>
      </trkpt>
      <trkpt lat="45.79964" lon="4.73371">
        <ele>296.182866</ele>
        <time>2024-12-17T18:25:03.104Z</time>
      </trkpt>
      <trkpt lat="45.79956" lon="4.73324">
        <ele>296.493293</ele>
        <time>2024-12-17T18:25:17.111Z</time>
      </trkpt>
      <trkpt lat="45.79959" lon="4.73306">
        <ele>296.615022</ele>
        <time>2024-12-17T18:25:22.561Z</time>
      </trkpt>
      <trkpt lat="45.7997" lon="4.73291">
        <ele>296.747455</ele>
        <time>2024-12-17T18:25:28.500Z</time>
      </trkpt>
      <trkpt lat="45.8001" lon="4.73285">
        <ele>297.058792</ele>
        <time>2024-12-17T18:25:45.243Z</time>
      </trkpt>
      <trkpt lat="45.80114" lon="4.73255">
        <ele>297.543929</ele>
        <time>2024-12-17T18:26:29.312Z</time>
      </trkpt>
      <trkpt lat="45.80193" lon="4.73253">
        <ele>298.194148</ele>
        <time>2024-12-17T18:27:02.538Z</time>
      </trkpt>
      <trkpt lat="45.80252" lon="4.7325">
        <ele>299.407306</ele>
        <time>2024-12-17T18:27:28.281Z</time>
      </trkpt>
      <trkpt lat="45.80289" lon="4.73243">
        <ele>300.159765</ele>
        <time>2024-12-17T18:27:44.513Z</time>
      </trkpt>
      <trkpt lat="45.80294" lon="4.73239">
        <ele>300.271737</ele>
        <time>2024-12-17T18:27:46.980Z</time>
      </trkpt>
      <trkpt lat="45.80326" lon="4.73252">
        <ele>300.94505</ele>
        <time>2024-12-17T18:28:02.159Z</time>
      </trkpt>
      <trkpt lat="45.80334" lon="4.73248">
        <ele>301.115006</ele>
        <time>2024-12-17T18:28:06.036Z</time>
      </trkpt>
      <trkpt lat="45.80347" lon="4.7322">
        <ele>301.692464</ele>
        <time>2024-12-17T18:28:17.315Z</time>
      </trkpt>
      <trkpt lat="45.80348" lon="4.73207">
        <ele>301.994338</ele>
        <time>2024-12-17T18:28:21.439Z</time>
      </trkpt>
      <trkpt lat="45.80359" lon="4.73204">
        <ele>302.358346</ele>
        <time>2024-12-17T18:28:27.328Z</time>
      </trkpt>
      <trkpt lat="45.8041" lon="4.73173">
        <ele>304.272821</ele>
        <time>2024-12-17T18:28:59.166Z</time>
      </trkpt>
      <trkpt lat="45.80493" lon="4.73117">
        <ele>307.465065</ele>
        <time>2024-12-17T18:29:51.392Z</time>
      </trkpt>
      <trkpt lat="45.80515" lon="4.73076">
        <ele>307.32703</ele>
        <time>2024-12-17T18:30:10.203Z</time>
      </trkpt>
      <trkpt lat="45.80589" lon="4.7294">
        <ele>305.724681</ele>
        <time>2024-12-17T18:31:06.494Z</time>
      </trkpt>
      <trkpt lat="45.80584" lon="4.72923">
        <ele>305.558015</ele>
        <time>2024-12-17T18:31:11.143Z</time>
      </trkpt>
      <trkpt lat="45.80542" lon="4.72852">
        <ele>302.162535</ele>
        <time>2024-12-17T18:31:34.596Z</time>
      </trkpt>
      <trkpt lat="45.80536" lon="4.72849">
        <ele>301.734039</ele>
        <time>2024-12-17T18:31:36.837Z</time>
      </trkpt>
      <trkpt lat="45.80534" lon="4.72838">
        <ele>301.182227</ele>
        <time>2024-12-17T18:31:40.222Z</time>
      </trkpt>
      <trkpt lat="45.80507" lon="4.72766">
        <ele>297.341382</ele>
        <time>2024-12-17T18:32:03.495Z</time>
      </trkpt>
      <trkpt lat="45.80484" lon="4.72732">
        <ele>295.120866</ele>
        <time>2024-12-17T18:32:16.844Z</time>
      </trkpt>
      <trkpt lat="45.80438" lon="4.72683">
        <ele>291.816095</ele>
        <time>2024-12-17T18:32:40.073Z</time>
      </trkpt>
      <trkpt lat="45.80341" lon="4.72629">
        <ele>286.869184</ele>
        <time>2024-12-17T18:33:24.084Z</time>
      </trkpt>
      <trkpt lat="45.80331" lon="4.72618">
        <ele>286.264909</ele>
        <time>2024-12-17T18:33:29.776Z</time>
      </trkpt>
      <trkpt lat="45.80316" lon="4.72602">
        <ele>285.37789</ele>
        <time>2024-12-17T18:33:38.307Z</time>
      </trkpt>
      <trkpt lat="45.80315" lon="4.72602">
        <ele>285.356376</ele>
        <time>2024-12-17T18:33:38.521Z</time>
      </trkpt>
      <trkpt lat="45.80296" lon="4.72586">
        <ele>284.76061</ele>
        <time>2024-12-17T18:33:49.177Z</time>
      </trkpt>
      <trkpt lat="45.80283" lon="4.72577">
        <ele>285.009795</ele>
        <time>2024-12-17T18:33:55.954Z</time>
      </trkpt>
      <trkpt lat="45.80241" lon="4.72543">
        <ele>285.863432</ele>
        <time>2024-12-17T18:34:21.103Z</time>
      </trkpt>
      <trkpt lat="45.80211" lon="4.72527">
        <ele>286.423811</ele>
        <time>2024-12-17T18:34:38.291Z</time>
      </trkpt>
      <trkpt lat="45.80204" lon="4.72511">
        <ele>286.660711</ele>
        <time>2024-12-17T18:34:45.610Z</time>
      </trkpt>
      <trkpt lat="45.80198" lon="4.72474">
        <ele>287.130666</ele>
        <time>2024-12-17T18:35:00.277Z</time>
      </trkpt>
      <trkpt lat="45.80199" lon="4.72447">
        <ele>287.461657</ele>
        <time>2024-12-17T18:35:10.627Z</time>
      </trkpt>
      <trkpt lat="45.8018" lon="4.72454">
        <ele>287.803594</ele>
        <time>2024-12-17T18:35:21.194Z</time>
      </trkpt>
      <trkpt lat="45.80151" lon="4.72476">
        <ele>288.289821</ele>
        <time>2024-12-17T18:35:38.657Z</time>
      </trkpt>
      <trkpt lat="45.80131" lon="4.72486">
        <ele>288.604074</ele>
        <time>2024-12-17T18:35:49.775Z</time>
      </trkpt>
      <trkpt lat="45.80088" lon="4.72503">
        <ele>289.269071</ele>
        <time>2024-12-17T18:36:12.477Z</time>
      </trkpt>
      <trkpt lat="45.8007" lon="4.72508">
        <ele>289.539019</ele>
        <time>2024-12-17T18:36:21.398Z</time>
      </trkpt>
      <trkpt lat="45.80021" lon="4.72535">
        <ele>290.319609</ele>
        <time>2024-12-17T18:36:47.527Z</time>
      </trkpt>
      <trkpt lat="45.79998" lon="4.72544">
        <ele>290.636011</ele>
        <time>2024-12-17T18:36:59.606Z</time>
      </trkpt>
      <trkpt lat="45.79981" lon="4.72551">
        <ele>290.842155</ele>
        <time>2024-12-17T18:37:08.347Z</time>
      </trkpt>
      <trkpt lat="45.79966" lon="4.72553">
        <ele>291.016182</ele>
        <time>2024-12-17T18:37:15.724Z</time>
      </trkpt>
      <trkpt lat="45.79952" lon="4.72552">
        <ele>291.182396</ele>
        <time>2024-12-17T18:37:22.763Z</time>
      </trkpt>
      <trkpt lat="45.79937" lon="4.72537">
        <ele>291.391425</ele>
        <time>2024-12-17T18:37:31.595Z</time>
      </trkpt>
      <trkpt lat="45.79925" lon="4.72533">
        <ele>291.536452</ele>
        <time>2024-12-17T18:37:37.752Z</time>
      </trkpt>
      <trkpt lat="45.79905" lon="4.72534">
        <ele>291.773357</ele>
        <time>2024-12-17T18:37:47.987Z</time>
      </trkpt>
      <trkpt lat="45.79836" lon="4.72545">
        <ele>292.584645</ele>
        <time>2024-12-17T18:38:23.933Z</time>
      </trkpt>
      <trkpt lat="45.79813" lon="4.72546">
        <ele>292.876599</ele>
        <time>2024-12-17T18:38:36.005Z</time>
      </trkpt>
      <trkpt lat="45.79802" lon="4.72536">
        <ele>293.036462</ele>
        <time>2024-12-17T18:38:42.529Z</time>
      </trkpt>
      <trkpt lat="45.79798" lon="4.72524">
        <ele>293.156708</ele>
        <time>2024-12-17T18:38:47.410Z</time>
      </trkpt>
      <trkpt lat="45.79792" lon="4.72478">
        <ele>293.564256</ele>
        <time>2024-12-17T18:39:03.932Z</time>
      </trkpt>
      <trkpt lat="45.79776" lon="4.72443">
        <ele>293.934393</ele>
        <time>2024-12-17T18:39:18.853Z</time>
      </trkpt>
      <trkpt lat="45.79764" lon="4.72426">
        <ele>294.153015</ele>
        <time>2024-12-17T18:39:27.660Z</time>
      </trkpt>
      <trkpt lat="45.79761" lon="4.7241">
        <ele>294.294639</ele>
        <time>2024-12-17T18:39:33.294Z</time>
      </trkpt>
      <trkpt lat="45.79759" lon="4.72388">
        <ele>294.488943</ele>
        <time>2024-12-17T18:39:41.008Z</time>
      </trkpt>
      <trkpt lat="45.79851" lon="4.72358">
        <ele>295.187487</ele>
        <time>2024-12-17T18:40:19.811Z</time>
      </trkpt>
      <trkpt lat="45.79899" lon="4.72337">
        <ele>295.451344</ele>
        <time>2024-12-17T18:40:41.008Z</time>
      </trkpt>
      <trkpt lat="45.79999" lon="4.72287">
        <ele>296.166184</ele>
        <time>2024-12-17T18:41:25.817Z</time>
      </trkpt>
      <trkpt lat="45.80078" lon="4.72229">
        <ele>296.961269</ele>
        <time>2024-12-17T18:42:02.870Z</time>
      </trkpt>
      <trkpt lat="45.8011" lon="4.72205">
        <ele>297.295089</ele>
        <time>2024-12-17T18:42:18.617Z</time>
      </trkpt>
      <trkpt lat="45.80127" lon="4.72197">
        <ele>297.497154</ele>
        <time>2024-12-17T18:42:26.219Z</time>
      </trkpt>
      <trkpt lat="45.80148" lon="4.72198">
        <ele>297.885693</ele>
        <time>2024-12-17T18:42:35.493Z</time>
      </trkpt>
      <trkpt lat="45.80158" lon="4.72184">
        <ele>298.12604</ele>
        <time>2024-12-17T18:42:41.230Z</time>
      </trkpt>
      <trkpt lat="45.80162" lon="4.72169">
        <ele>298.332693</ele>
        <time>2024-12-17T18:42:46.181Z</time>
      </trkpt>
      <trkpt lat="45.80199" lon="4.72122">
        <ele>299.247079</ele>
        <time>2024-12-17T18:43:08.303Z</time>
      </trkpt>
      <trkpt lat="45.80204" lon="4.7212">
        <ele>299.33163</ele>
        <time>2024-12-17T18:43:10.381Z</time>
      </trkpt>
      <trkpt lat="45.80335" lon="4.71977">
        <ele>301.629078</ele>
        <time>2024-12-17T18:44:23.492Z</time>
      </trkpt>
      <trkpt lat="45.80335" lon="4.71977">
        <ele>301.629078</ele>
        <time>2024-12-17T18:44:23.513Z</time>
      </trkpt>
      <trkpt lat="45.80347" lon="4.71969">
        <ele>301.774581</ele>
        <time>2024-12-17T18:44:29.452Z</time>
      </trkpt>
      <trkpt lat="45.80356" lon="4.71963">
        <ele>301.880993</ele>
        <time>2024-12-17T18:44:33.786Z</time>
      </trkpt>
      <trkpt lat="45.8036" lon="4.71978">
        <ele>301.999871</ele>
        <time>2024-12-17T18:44:38.599Z</time>
      </trkpt>
      <trkpt lat="45.8037" lon="4.71986">
        <ele>302.121223</ele>
        <time>2024-12-17T18:44:43.477Z</time>
      </trkpt>
      <trkpt lat="45.80372" lon="4.71993">
        <ele>302.169172</ele>
        <time>2024-12-17T18:44:45.364Z</time>
      </trkpt>
      <trkpt lat="45.80377" lon="4.72018">
        <ele>302.360877</ele>
        <time>2024-12-17T18:44:52.842Z</time>
      </trkpt>
      <trkpt lat="45.80372" lon="4.72029">
        <ele>302.460859</ele>
        <time>2024-12-17T18:44:56.716Z</time>
      </trkpt>
      <trkpt lat="45.80372" lon="4.72052">
        <ele>302.480273</ele>
        <time>2024-12-17T18:45:03.118Z</time>
      </trkpt>
      <trkpt lat="45.80357" lon="4.72058">
        <ele>302.196555</ele>
        <time>2024-12-17T18:45:09.155Z</time>
      </trkpt>
      <trkpt lat="45.80317" lon="4.72072">
        <ele>301.414381</ele>
        <time>2024-12-17T18:45:25.589Z</time>
      </trkpt>
      <trkpt lat="45.80288" lon="4.72094">
        <ele>300.786481</ele>
        <time>2024-12-17T18:45:38.420Z</time>
      </trkpt>
      <trkpt lat="45.80261" lon="4.72116">
        <ele>300.212525</ele>
        <time>2024-12-17T18:45:50.122Z</time>
      </trkpt>
      <trkpt lat="45.80236" lon="4.72132">
        <ele>299.681918</ele>
        <time>2024-12-17T18:46:00.994Z</time>
      </trkpt>
      <trkpt lat="45.80176" lon="4.7216">
        <ele>298.65054</ele>
        <time>2024-12-17T18:46:25.382Z</time>
      </trkpt>
      <trkpt lat="45.8017" lon="4.72169">
        <ele>298.521277</ele>
        <time>2024-12-17T18:46:28.868Z</time>
      </trkpt>
      <trkpt lat="45.80167" lon="4.72181">
        <ele>298.389594</ele>
        <time>2024-12-17T18:46:32.398Z</time>
      </trkpt>
      <trkpt lat="45.8017" lon="4.72199">
        <ele>298.196205</ele>
        <time>2024-12-17T18:46:37.586Z</time>
      </trkpt>
      <trkpt lat="45.80175" lon="4.72217">
        <ele>298.001955</ele>
        <time>2024-12-17T18:46:42.824Z</time>
      </trkpt>
      <trkpt lat="45.80098" lon="4.72266">
        <ele>296.7605</ele>
        <time>2024-12-17T18:47:16.645Z</time>
      </trkpt>
      <trkpt lat="45.79969" lon="4.72334">
        <ele>295.333448</ele>
        <time>2024-12-17T18:48:11.875Z</time>
      </trkpt>
      <trkpt lat="45.79954" lon="4.72349">
        <ele>295.147874</ele>
        <time>2024-12-17T18:48:19.352Z</time>
      </trkpt>
      <trkpt lat="45.79947" lon="4.72362">
        <ele>295.034205</ele>
        <time>2024-12-17T18:48:23.912Z</time>
      </trkpt>
      <trkpt lat="45.79933" lon="4.72388">
        <ele>294.808062</ele>
        <time>2024-12-17T18:48:32.983Z</time>
      </trkpt>
      <trkpt lat="45.7993" lon="4.72408">
        <ele>294.644984</ele>
        <time>2024-12-17T18:48:38.701Z</time>
      </trkpt>
      <trkpt lat="45.7993" lon="4.72439">
        <ele>294.388887</ele>
        <time>2024-12-17T18:48:47.194Z</time>
      </trkpt>
      <trkpt lat="45.79939" lon="4.72468">
        <ele>294.12696</ele>
        <time>2024-12-17T18:48:55.865Z</time>
      </trkpt>
      <trkpt lat="45.79951" lon="4.72487">
        <ele>293.914416</ele>
        <time>2024-12-17T18:49:02.891Z</time>
      </trkpt>
      <trkpt lat="45.79963" lon="4.72497">
        <ele>293.750261</ele>
        <time>2024-12-17T18:49:08.369Z</time>
      </trkpt>
      <trkpt lat="45.79974" lon="4.72502">
        <ele>293.615527</ele>
        <time>2024-12-17T18:49:12.839Z</time>
      </trkpt>
      <trkpt lat="45.79989" lon="4.72505">
        <ele>293.428415</ele>
        <time>2024-12-17T18:49:19.089Z</time>
      </trkpt>
      <trkpt lat="45.8" lon="4.72502">
        <ele>293.292685</ele>
        <time>2024-12-17T18:49:23.596Z</time>
      </trkpt>
      <trkpt lat="45.80076" lon="4.72465">
        <ele>292.637968</ele>
        <time>2024-12-17T18:49:55.591Z</time>
      </trkpt>
      <trkpt lat="45.80194" lon="4.72406">
        <ele>292.747249</ele>
        <time>2024-12-17T18:50:46.915Z</time>
      </trkpt>
      <trkpt lat="45.80217" lon="4.72395">
        <ele>292.768657</ele>
        <time>2024-12-17T18:50:57.311Z</time>
      </trkpt>
      <trkpt lat="45.80227" lon="4.72397">
        <ele>292.831414</ele>
        <time>2024-12-17T18:51:01.764Z</time>
      </trkpt>
      <trkpt lat="45.80235" lon="4.72397">
        <ele>292.966805</ele>
        <time>2024-12-17T18:51:04.985Z</time>
      </trkpt>
      <trkpt lat="45.80239" lon="4.72396">
        <ele>293.048069</ele>
        <time>2024-12-17T18:51:06.904Z</time>
      </trkpt>
      <trkpt lat="45.80326" lon="4.72355">
        <ele>294.690464</ele>
        <time>2024-12-17T18:51:46.742Z</time>
      </trkpt>
      <trkpt lat="45.80352" lon="4.72343">
        <ele>295.17971</ele>
        <time>2024-12-17T18:51:58.771Z</time>
      </trkpt>
      <trkpt lat="45.80451" lon="4.72295">
        <ele>297.590837</ele>
        <time>2024-12-17T18:52:46.594Z</time>
      </trkpt>
      <trkpt lat="45.80464" lon="4.72275">
        <ele>298.102261</ele>
        <time>2024-12-17T18:52:55.229Z</time>
      </trkpt>
      <trkpt lat="45.80477" lon="4.72266">
        <ele>298.483164</ele>
        <time>2024-12-17T18:53:01.681Z</time>
      </trkpt>
      <trkpt lat="45.8049" lon="4.72249">
        <ele>298.945978</ele>
        <time>2024-12-17T18:53:09.556Z</time>
      </trkpt>
      <trkpt lat="45.80501" lon="4.72225">
        <ele>299.486955</ele>
        <time>2024-12-17T18:53:18.891Z</time>
      </trkpt>
      <trkpt lat="45.80509" lon="4.72213">
        <ele>299.802514</ele>
        <time>2024-12-17T18:53:24.382Z</time>
      </trkpt>
      <trkpt lat="45.80515" lon="4.72202">
        <ele>300.052594</ele>
        <time>2024-12-17T18:53:28.706Z</time>
      </trkpt>
      <trkpt lat="45.80549" lon="4.72186">
        <ele>300.833445</ele>
        <time>2024-12-17T18:53:45.387Z</time>
      </trkpt>
      <trkpt lat="45.80557" lon="4.72174">
        <ele>300.833445</ele>
        <time>2024-12-17T18:53:50.448Z</time>
      </trkpt>
      <trkpt lat="45.80543" lon="4.72118">
        <ele>300.833445</ele>
        <time>2024-12-17T18:54:09.189Z</time>
      </trkpt>
      <trkpt lat="45.80541" lon="4.72109">
        <ele>300.833445</ele>
        <time>2024-12-17T18:54:12.099Z</time>
      </trkpt>
      <trkpt lat="45.80537" lon="4.72073">
        <ele>300.833445</ele>
        <time>2024-12-17T18:54:23.000Z</time>
      </trkpt>
    </trkseg>
  </trk>
</gpx>